KRSW

Southwest Florida International Airport

Fort Myers, Florida, USA
METAR KRSW 280053Z 16013KT 10SM FEW019 SCT025 SCT032 27/24 A2979 RMK AO2 SLP085 T02670239
Observed Flight Rules
May-28 @ 00:53 UTC (28 minutes ago) Visual Flight Rules
Wind Visibility Clouds
160° at 13 knots 10 miles
  • Few at 1,900' AGL
  • Scattered at 2,500' AGL
  • Scattered at 3,200' AGL
Temperatures Readings
Current 27°C / 81°F
Dewpoint 24°C / 75°F
Humidity 84%
Altimeter 29.79" Hg
Pressure 1008.5 hPa
Elevation 10
METAR KRSW 280053Z 16013KT 10SM FEW019 SCT025 SCT032 27/24 A2979 RMK AO2 SLP085 T02670239
Observed Flight Rules
May-28 @ 00:53 UTC
(28 minutes ago)
VFR
Wind Visibility
160° at 13 knots 10 miles
Clouds
  • Few at 1,900' AGL
  • Scattered at 2,500' AGL
  • Scattered at 3,200' AGL
Temperature Dewpoint
27°C / 81°F 24°C / 75°F
Humidity Altimeter Pressure
84% 29.79" Hg 1008.5 hPa